createdAt,value
2023-04-12T00:00:46.617Z,9.35
2023-04-12T00:03:20.558Z,12.82
2023-04-12T00:05:49.011Z,9.05
2023-04-12T00:08:17.048Z,12.45
2023-04-12T00:10:44.375Z,13.30
2023-04-12T00:13:11.572Z,10.48
2023-04-12T00:15:42.014Z,12.32
2023-04-12T00:18:09.217Z,9.82
2023-04-12T00:20:36.585Z,11.43
2023-04-12T00:23:03.622Z,6.68
2023-04-12T00:25:31.026Z,8.70
2023-04-12T00:27:58.576Z,7.35
2023-04-12T00:30:25.929Z,11.60
2023-04-12T00:32:53.147Z,10.23
2023-04-12T00:35:20.616Z,11.63
2023-04-12T00:37:47.711Z,11.57
2023-04-12T00:40:14.997Z,10.20
2023-04-12T00:42:42.378Z,12.98
2023-04-12T00:45:10.206Z,9.05
2023-04-12T00:47:38.254Z,10.80
2023-04-12T00:50:21.431Z,6.93
2023-04-12T00:53:11.914Z,12.27
2023-04-12T00:55:44.806Z,14.25
2023-04-12T00:58:40.346Z,13.98
2023-04-12T01:01:57.493Z,13.93
2023-04-12T01:04:26.540Z,8.32
2023-04-12T01:07:26.439Z,12.30
2023-04-12T01:10:12.713Z,12.27
2023-04-12T01:12:53.372Z,12.60
2023-04-12T01:18:23.352Z,10.77
2023-04-12T01:20:59.035Z,10.20
2023-04-12T01:23:44.929Z,12.18
2023-04-12T01:26:44.231Z,9.43
2023-04-12T01:29:18.490Z,11.15
2023-04-12T01:31:51.606Z,13.75
2023-04-12T01:34:31.356Z,10.02
2023-04-12T01:37:24.527Z,9.25
2023-04-12T01:39:52.021Z,13.15
2023-04-12T01:42:20.707Z,13.48
2023-04-12T01:44:49.452Z,13.23
2023-04-12T01:47:23.014Z,13.88
2023-04-12T01:50:03.833Z,14.98
2023-04-12T01:52:36.878Z,10.73
2023-04-12T01:55:06.070Z,14.13
2023-04-12T01:57:34.853Z,12.27
2023-04-12T02:02:35.398Z,13.73
2023-04-12T02:05:04.800Z,8.90
2023-04-12T02:10:15.509Z,13.13
2023-04-12T02:12:42.694Z,12.23
2023-04-12T02:15:10.362Z,9.15
2023-04-12T02:20:56.103Z,12.20
2023-04-12T02:23:23.076Z,14.68
2023-04-12T02:25:50.422Z,11.77
2023-04-12T02:28:17.384Z,13.70
2023-04-12T02:30:45.668Z,12.95
2023-04-12T02:33:13.375Z,9.52
2023-04-12T02:35:40.834Z,13.80
2023-04-12T02:38:08.771Z,13.32
2023-04-12T02:40:45.202Z,12.82
2023-04-12T02:43:17.838Z,14.68
2023-04-12T02:45:45.375Z,12.85
2023-04-12T02:48:12.487Z,12.15
2023-04-12T02:51:01.632Z,12.02
2023-04-12T02:56:45.940Z,13.25
2023-04-12T02:59:13.977Z,11.55
2023-04-12T03:01:55.278Z,14.57
2023-04-12T03:04:40.179Z,13.05
2023-04-12T03:09:58.086Z,14.88
2023-04-12T03:12:25.605Z,13.00
2023-04-12T03:14:52.594Z,14.45
2023-04-12T03:17:20.007Z,15.00
2023-04-12T03:19:47.000Z,16.95
2023-04-12T03:22:14.230Z,5.95
2023-04-12T03:24:44.802Z,13.32
2023-04-12T03:27:12.214Z,15.25
2023-04-12T03:29:39.250Z,15.13
2023-04-12T03:32:06.654Z,14.80
2023-04-12T03:34:33.973Z,15.35
2023-04-12T03:37:02.480Z,15.90
2023-04-12T03:39:30.637Z,12.75
2023-04-12T03:42:00.114Z,15.05
2023-04-12T03:44:27.198Z,15.18
2023-04-12T03:46:55.333Z,16.45
2023-04-12T03:49:22.402Z,16.17
2023-04-12T03:51:50.957Z,16.92
2023-04-12T03:54:20.721Z,16.98
2023-04-12T03:56:48.099Z,14.52
2023-04-12T03:59:15.054Z,15.38
2023-04-12T04:01:43.838Z,14.90
2023-04-12T04:04:11.536Z,16.58
2023-04-12T04:06:39.648Z,15.73
2023-04-12T04:09:07.476Z,15.88
2023-04-12T04:11:35.907Z,16.08
2023-04-12T04:14:04.102Z,17.70
2023-04-12T04:16:32.098Z,17.17
2023-04-12T04:18:59.173Z,15.63
2023-04-12T04:21:30.771Z,17.08
2023-04-12T04:24:01.306Z,16.50
2023-04-12T04:26:33.659Z,15.82
2023-04-12T04:29:02.045Z,15.30
2023-04-12T04:31:36.609Z,18.08
2023-04-12T04:34:05.658Z,14.43
2023-04-12T04:36:47.702Z,16.73
2023-04-12T04:39:18.322Z,15.85
2023-04-12T04:41:46.867Z,16.48
2023-04-12T04:44:14.409Z,15.60
2023-04-12T04:46:42.103Z,15.13
2023-04-12T04:49:13.135Z,16.27
2023-04-12T04:51:42.393Z,15.02
2023-04-12T04:54:09.726Z,13.52
2023-04-12T04:56:37.398Z,19.52
2023-04-12T04:59:05.140Z,16.55
2023-04-12T05:01:36.280Z,14.50
2023-04-12T05:04:04.361Z,14.07
2023-04-12T05:06:33.949Z,14.43
2023-04-12T05:09:02.129Z,19.33
2023-04-12T05:11:29.517Z,19.10
2023-04-12T05:13:56.703Z,17.33
2023-04-12T05:16:24.159Z,19.05
2023-04-12T05:18:51.798Z,17.02
2023-04-12T05:21:24.101Z,18.60
2023-04-12T05:23:53.059Z,18.85
2023-04-12T05:26:21.691Z,17.50
2023-04-12T05:28:48.699Z,16.85
2023-04-12T05:31:27.403Z,16.85
2023-04-12T05:34:14.611Z,18.42
2023-04-12T05:36:42.213Z,17.83
2023-04-12T05:39:09.256Z,18.88
2023-04-12T05:41:44.224Z,17.58
2023-04-12T05:44:12.598Z,18.65
2023-04-12T05:46:40.251Z,11.88
2023-04-12T05:49:10.688Z,12.75
2023-04-12T05:51:41.524Z,15.45
2023-04-12T05:54:10.827Z,12.25
2023-04-12T05:59:28.832Z,8.13
2023-04-12T06:02:12.621Z,9.55
2023-04-12T06:04:50.261Z,10.63
2023-04-12T06:07:19.644Z,14.30
2023-04-12T06:12:17.772Z,14.35
2023-04-12T06:14:45.318Z,14.40
2023-04-12T06:17:12.510Z,13.30
2023-04-12T06:19:39.894Z,14.30
2023-04-12T06:22:07.125Z,9.70
2023-04-12T06:24:34.719Z,9.40
2023-04-12T06:27:01.877Z,10.40
2023-04-12T06:29:29.732Z,12.63
2023-04-12T06:31:56.782Z,11.40
2023-04-12T06:34:24.476Z,13.02
2023-04-12T06:36:52.237Z,13.57
2023-04-12T06:39:19.912Z,11.63
2023-04-12T06:41:47.774Z,11.38
2023-04-12T06:44:20.382Z,13.55
2023-04-12T06:46:47.623Z,15.38
2023-04-12T06:49:16.498Z,14.50
2023-04-12T06:55:18.651Z,11.82
2023-04-12T06:57:53.190Z,13.90
2023-04-12T07:00:25.221Z,13.82
2023-04-12T07:02:52.770Z,14.25
2023-04-12T07:05:20.462Z,9.30
2023-04-12T07:07:47.493Z,14.18
2023-04-12T07:10:14.848Z,11.40
2023-04-12T07:12:42.460Z,14.15
2023-04-12T07:15:10.425Z,13.23
2023-04-12T07:17:37.596Z,8.52
2023-04-12T07:20:05.893Z,10.18
2023-04-12T07:22:33.115Z,11.63
2023-04-12T07:25:02.123Z,15.35
2023-04-12T07:27:30.770Z,10.20
2023-04-12T07:29:58.894Z,10.70
2023-04-12T07:32:28.385Z,11.55
2023-04-12T07:35:00.867Z,10.45
2023-04-12T07:37:28.131Z,10.85
2023-04-12T07:39:55.684Z,8.82
2023-04-12T07:42:23.966Z,10.85
2023-04-12T07:47:21.222Z,9.75
2023-04-12T07:49:48.590Z,12.23
2023-04-12T07:52:16.899Z,10.82
2023-04-12T07:54:44.622Z,10.88
2023-04-12T07:57:16.183Z,12.57
2023-04-12T07:59:44.027Z,10.25
2023-04-12T08:02:11.095Z,10.40
2023-04-12T08:04:38.648Z,11.00
2023-04-12T08:07:05.915Z,10.82
2023-04-12T08:09:33.588Z,12.20
2023-04-12T08:12:03.978Z,9.80
2023-04-12T08:14:31.518Z,11.27
2023-04-12T08:16:58.584Z,10.90
2023-04-12T08:19:43.873Z,11.60
2023-04-12T08:22:13.552Z,11.43
2023-04-12T08:24:41.011Z,9.40
2023-04-12T08:27:13.371Z,9.60
2023-04-12T08:29:40.665Z,9.63
2023-04-12T08:32:09.762Z,8.75
2023-04-12T08:37:05.114Z,5.35
2023-04-12T08:39:35.050Z,7.90
2023-04-12T08:42:05.099Z,7.78
2023-04-12T08:47:26.561Z,6.78
2023-04-12T08:49:54.172Z,8.35
2023-04-12T08:52:21.270Z,8.20
2023-04-12T08:54:49.324Z,8.77
2023-04-12T08:57:19.074Z,5.03
2023-04-12T08:59:51.237Z,8.38
2023-04-12T09:02:18.656Z,9.57
2023-04-12T09:04:54.056Z,7.47
2023-04-12T09:07:28.159Z,5.47
2023-04-12T09:09:58.702Z,4.45
2023-04-12T09:12:26.450Z,4.03
2023-04-12T09:15:14.408Z,5.63
2023-04-12T09:17:42.903Z,4.63
2023-04-12T09:20:21.645Z,6.78
2023-04-12T09:22:49.086Z,3.95
2023-04-12T09:25:16.823Z,5.78
2023-04-12T09:27:48.498Z,5.45
2023-04-12T09:30:18.311Z,5.80
2023-04-12T09:32:49.448Z,4.75
2023-04-12T09:35:17.108Z,6.00
2023-04-12T09:37:44.222Z,4.85
2023-04-12T09:40:13.236Z,3.95
2023-04-12T09:42:53.622Z,6.43
2023-04-12T09:45:24.145Z,5.97
2023-04-12T09:47:52.494Z,5.35
2023-04-12T09:52:52.754Z,4.85
2023-04-12T09:55:23.204Z,5.60
2023-04-12T09:57:51.995Z,4.82
2023-04-12T10:00:22.685Z,6.38
2023-04-12T10:02:52.271Z,6.20
2023-04-12T10:05:23.380Z,5.78
2023-04-12T10:07:51.293Z,5.93
2023-04-12T10:10:19.653Z,5.45
2023-04-12T10:12:48.611Z,5.57
2023-04-12T10:15:21.935Z,6.30
2023-04-12T10:17:52.068Z,5.68
2023-04-12T10:20:27.053Z,4.75
2023-04-12T10:22:58.376Z,5.38
2023-04-12T10:25:31.906Z,6.03
2023-04-12T10:28:17.678Z,4.97
2023-04-12T10:30:54.810Z,5.20
2023-04-12T10:33:27.258Z,5.68
2023-04-12T10:36:08.817Z,4.53
2023-04-12T10:38:47.565Z,5.60
2023-04-12T10:43:51.093Z,5.40
2023-04-12T10:46:40.865Z,7.53
2023-04-12T10:49:16.889Z,5.80
2023-04-12T10:52:05.827Z,4.43
2023-04-12T10:54:37.437Z,5.22
2023-04-12T10:57:11.783Z,4.80
2023-04-12T10:59:57.064Z,5.60
2023-04-12T11:02:25.793Z,4.18
2023-04-12T11:05:11.801Z,4.53
2023-04-12T11:07:44.537Z,4.60
2023-04-12T11:10:21.806Z,4.10
2023-04-12T11:12:50.857Z,4.90
2023-04-12T11:15:18.590Z,5.18
2023-04-12T11:20:27.443Z,3.75
2023-04-12T11:22:55.612Z,4.05
2023-04-12T11:25:23.270Z,3.38
2023-04-12T11:28:01.570Z,4.40
2023-04-12T11:30:31.541Z,5.22
2023-04-12T11:32:58.986Z,4.95
2023-04-12T11:38:41.374Z,4.13
2023-04-12T11:41:09.592Z,4.68
2023-04-12T11:43:41.204Z,4.43
2023-04-12T11:46:09.572Z,4.32
2023-04-12T11:48:38.978Z,4.15
2023-04-12T11:51:25.463Z,4.07
2023-04-12T11:53:54.484Z,4.68
2023-04-12T11:56:25.649Z,4.57
2023-04-12T11:58:53.319Z,4.75
2023-04-12T12:01:24.876Z,4.25
2023-04-12T12:03:52.855Z,4.30
2023-04-12T12:06:21.738Z,3.35
2023-04-12T12:08:53.235Z,4.28
2023-04-12T12:11:24.076Z,3.97
2023-04-12T12:13:58.630Z,3.10
2023-04-12T12:16:29.473Z,3.30
2023-04-12T12:18:58.011Z,4.15
2023-04-12T12:21:26.443Z,3.80
2023-04-12T12:23:54.578Z,4.45
2023-04-12T12:26:24.398Z,4.68
2023-04-12T12:28:54.427Z,3.67
2023-04-12T12:31:23.908Z,4.30
2023-04-12T12:34:04.189Z,4.95
2023-04-12T12:36:33.814Z,4.25
2023-04-12T12:39:15.591Z,2.60
2023-04-12T12:41:42.848Z,2.58
2023-04-12T12:49:28.977Z,4.38
2023-04-12T12:51:56.570Z,4.22
2023-04-12T12:54:39.324Z,4.22
2023-04-12T12:57:08.162Z,2.58
2023-04-12T12:59:36.282Z,3.53
2023-04-12T13:02:03.581Z,3.58
2023-04-12T13:04:31.782Z,3.97
2023-04-12T13:06:58.989Z,3.88
2023-04-12T13:09:26.372Z,3.70
2023-04-12T13:11:53.493Z,3.20
2023-04-12T13:14:21.060Z,2.55
2023-04-12T13:16:49.640Z,3.80
2023-04-12T13:19:17.402Z,4.00
2023-04-12T13:21:44.685Z,3.80
2023-04-12T13:24:12.216Z,3.80
2023-04-12T13:26:39.399Z,4.00
2023-04-12T13:29:07.387Z,3.53
2023-04-12T13:31:34.955Z,3.75
2023-04-12T13:34:02.443Z,4.25
2023-04-12T13:36:31.299Z,3.75
2023-04-12T13:38:58.880Z,3.50
2023-04-12T13:41:26.364Z,4.20
2023-04-12T13:43:56.606Z,3.80
2023-04-12T13:46:23.834Z,3.10
2023-04-12T13:48:53.505Z,2.80
2023-04-12T13:51:21.302Z,3.92
2023-04-12T13:53:49.028Z,3.40
2023-04-12T13:56:19.154Z,3.03
2023-04-12T13:58:52.349Z,3.05
2023-04-12T14:01:34.627Z,4.05
2023-04-12T14:04:02.509Z,3.35
2023-04-12T14:06:30.312Z,2.47
2023-04-12T14:08:58.044Z,3.42
2023-04-12T14:11:28.406Z,3.30
2023-04-12T14:13:56.558Z,3.38
2023-04-12T14:16:24.354Z,3.50
2023-04-12T14:18:51.978Z,3.72
2023-04-12T14:21:19.025Z,3.45
2023-04-12T14:23:48.379Z,3.78
2023-04-12T14:26:16.495Z,3.03
2023-04-12T14:28:44.324Z,3.33
2023-04-12T14:31:11.860Z,3.47
2023-04-12T14:33:39.660Z,3.30
2023-04-12T14:36:08.406Z,3.53
2023-04-12T14:38:37.984Z,7.68
2023-04-12T14:41:09.807Z,4.45
2023-04-12T14:43:38.883Z,6.55
2023-04-12T14:46:06.491Z,7.20
2023-04-12T14:48:34.728Z,4.90
2023-04-12T14:51:01.770Z,3.05
2023-04-12T14:53:30.438Z,3.40
2023-04-12T14:55:57.603Z,3.90
2023-04-12T14:58:28.120Z,3.47
2023-04-12T15:00:58.582Z,3.03
2023-04-12T15:03:30.850Z,4.97
2023-04-12T15:05:59.445Z,4.50
2023-04-12T15:08:35.000Z,3.90
2023-04-12T15:11:05.411Z,3.92
2023-04-12T15:13:34.719Z,2.78
2023-04-12T15:16:11.587Z,3.90
2023-04-12T15:18:42.938Z,3.47
2023-04-12T15:21:11.756Z,3.10
2023-04-12T15:23:43.173Z,3.15
2023-04-12T15:26:14.057Z,3.53
2023-04-12T15:28:42.543Z,3.58
2023-04-12T15:31:12.195Z,4.10
2023-04-12T15:33:40.000Z,4.00
2023-04-12T15:36:07.596Z,4.22
2023-04-12T15:38:41.813Z,4.80
2023-04-12T15:44:03.078Z,4.45
2023-04-12T15:46:30.448Z,4.60
2023-04-12T15:51:43.032Z,4.15
2023-04-12T15:54:10.559Z,5.32
2023-04-12T15:56:42.708Z,3.97
2023-04-12T15:59:13.332Z,5.47
2023-04-12T16:01:40.705Z,4.75
2023-04-12T16:04:13.814Z,5.57
2023-04-12T16:06:41.161Z,5.70
2023-04-12T16:09:09.056Z,5.90
2023-04-12T16:11:37.347Z,5.93
2023-04-12T16:14:04.845Z,5.70
2023-04-12T16:16:33.193Z,5.82
2023-04-12T16:19:01.340Z,6.32
2023-04-12T16:21:30.422Z,6.60
2023-04-12T16:23:59.534Z,6.82
2023-04-12T16:26:27.591Z,6.97
2023-04-12T16:28:55.580Z,6.78
2023-04-12T16:31:23.284Z,7.72
2023-04-12T16:33:54.016Z,7.90
2023-04-12T16:36:36.845Z,8.43
2023-04-12T16:39:06.565Z,8.35
2023-04-12T16:41:33.530Z,7.85
2023-04-12T16:44:03.429Z,8.25
2023-04-12T16:46:31.080Z,9.07
2023-04-12T16:49:06.126Z,8.07
2023-04-12T16:51:36.649Z,8.80
2023-04-12T16:54:05.074Z,8.95
2023-04-12T16:56:37.264Z,7.40
2023-04-12T16:59:11.097Z,7.13
2023-04-12T17:01:42.137Z,7.63
2023-04-12T17:04:13.268Z,8.85
2023-04-12T17:06:41.617Z,8.68
2023-04-12T17:09:09.854Z,6.95
2023-04-12T17:11:37.232Z,8.90
2023-04-12T17:14:08.403Z,9.57
2023-04-12T17:19:03.725Z,5.43
2023-04-12T17:21:41.023Z,7.53
2023-04-12T17:24:10.904Z,7.35
2023-04-12T17:26:38.554Z,6.68
2023-04-12T17:29:07.833Z,6.60
2023-04-12T17:31:36.873Z,8.52
2023-04-12T17:34:07.482Z,7.53
2023-04-12T17:36:34.844Z,6.78
2023-04-12T17:39:04.944Z,7.25
2023-04-12T17:41:32.194Z,7.18
2023-04-12T17:44:00.474Z,7.05
2023-04-12T17:46:28.022Z,6.15
2023-04-12T17:48:58.452Z,7.53
2023-04-12T17:51:26.699Z,8.73
2023-04-12T17:56:22.479Z,6.35
2023-04-12T17:59:03.563Z,6.95
2023-04-12T18:01:33.703Z,8.70
2023-04-12T18:04:10.263Z,7.38
2023-04-12T18:06:39.874Z,7.40
2023-04-12T18:09:13.319Z,6.53
2023-04-12T18:11:44.240Z,7.00
2023-04-12T18:14:13.387Z,7.50
2023-04-12T18:16:41.294Z,7.43
2023-04-12T18:19:14.829Z,6.85
2023-04-12T18:21:42.197Z,7.28
2023-04-12T18:24:09.841Z,6.15
2023-04-12T18:26:37.119Z,7.15
2023-04-12T18:29:05.011Z,6.53
2023-04-12T18:31:39.127Z,5.90
2023-04-12T18:34:10.617Z,7.85
2023-04-12T18:36:39.572Z,6.95
2023-04-12T18:39:08.988Z,6.97
2023-04-12T18:41:36.654Z,7.72
2023-04-12T18:44:04.237Z,7.38
2023-04-12T18:46:31.576Z,7.25
2023-04-12T18:49:03.194Z,8.13
2023-04-12T18:51:33.135Z,7.15
2023-04-12T18:56:31.784Z,7.80
2023-04-12T18:58:59.547Z,8.13
2023-04-12T19:01:26.969Z,7.80
2023-04-12T19:03:55.228Z,7.53
2023-04-12T19:06:23.450Z,8.52
2023-04-12T19:09:00.246Z,8.25
2023-04-12T19:11:27.974Z,7.47
2023-04-12T19:13:59.924Z,8.05
2023-04-12T19:16:27.749Z,6.65
2023-04-12T19:18:57.443Z,6.72
2023-04-12T19:21:24.736Z,6.10
2023-04-12T19:23:53.251Z,8.75
2023-04-12T19:26:23.001Z,8.18
2023-04-12T19:28:55.877Z,7.43
2023-04-12T19:31:23.888Z,8.23
2023-04-12T19:33:54.787Z,8.55
2023-04-12T19:36:24.713Z,7.57
2023-04-12T19:38:52.632Z,8.02
2023-04-12T19:41:20.829Z,6.32
2023-04-12T19:43:48.316Z,7.93
2023-04-12T19:49:01.648Z,6.70
2023-04-12T19:51:29.747Z,8.13
2023-04-12T19:53:57.719Z,7.10
2023-04-12T19:56:25.717Z,8.55
2023-04-12T19:58:58.314Z,9.07
2023-04-12T20:01:30.087Z,6.32
2023-04-12T20:03:57.526Z,7.82
2023-04-12T20:06:28.811Z,6.57
2023-04-12T20:08:56.604Z,7.07
2023-04-12T20:11:24.562Z,8.32
2023-04-12T20:13:52.005Z,7.38
2023-04-12T20:16:21.482Z,6.53
2023-04-12T20:18:51.113Z,6.18
2023-04-12T20:23:54.695Z,6.85
2023-04-12T20:26:23.144Z,7.18
2023-04-12T20:28:52.281Z,8.10
2023-04-12T20:31:20.837Z,8.10
2023-04-12T20:36:20.556Z,7.88
2023-04-12T20:38:50.053Z,7.57
2023-04-12T20:41:20.378Z,8.18
2023-04-12T20:43:50.716Z,7.72
2023-04-12T20:46:30.231Z,8.30
2023-04-12T20:48:58.594Z,7.88
2023-04-12T20:51:25.802Z,7.50
2023-04-12T20:53:53.898Z,7.30
2023-04-12T20:56:20.865Z,7.13
2023-04-12T20:58:50.727Z,7.32
2023-04-12T21:01:18.948Z,7.10
2023-04-12T21:03:47.234Z,8.18
2023-04-12T21:06:14.365Z,6.07
2023-04-12T21:08:43.458Z,6.30
2023-04-12T21:11:10.655Z,6.68
2023-04-12T21:13:38.127Z,6.93
2023-04-12T21:16:05.786Z,6.00
2023-04-12T21:18:36.643Z,6.32
2023-04-12T21:21:04.086Z,6.85
2023-04-12T21:23:31.749Z,6.40
2023-04-12T21:25:59.303Z,7.07
2023-04-12T21:28:26.976Z,7.05
2023-04-12T21:30:55.387Z,6.50
2023-04-12T21:33:26.406Z,6.43
2023-04-12T21:35:56.294Z,5.13
2023-04-12T21:38:26.192Z,4.85
2023-04-12T21:40:58.857Z,5.38
2023-04-12T21:43:26.976Z,3.95
2023-04-12T21:45:54.806Z,5.05
2023-04-12T21:48:22.333Z,6.00
2023-04-12T21:50:51.394Z,4.97
2023-04-12T21:53:18.756Z,5.72
2023-04-12T21:55:51.245Z,6.40
2023-04-12T21:58:18.547Z,5.47
2023-04-12T22:00:45.761Z,5.97
2023-04-12T22:03:13.666Z,5.43
2023-04-12T22:05:57.168Z,6.00
2023-04-12T22:08:56.411Z,5.82
2023-04-12T22:11:23.899Z,5.32
2023-04-12T22:13:51.235Z,6.53
2023-04-12T22:16:24.360Z,5.68
2023-04-12T22:19:04.344Z,6.93
2023-04-12T22:21:55.476Z,6.82
2023-04-12T22:24:23.603Z,5.15
2023-04-12T22:26:56.188Z,6.82
2023-04-12T22:29:25.680Z,5.60
2023-04-12T22:31:52.866Z,7.05
2023-04-12T22:34:20.184Z,6.70
2023-04-12T22:36:52.502Z,7.35
2023-04-12T22:39:20.650Z,7.43
2023-04-12T22:41:55.535Z,6.55
2023-04-12T22:44:31.961Z,6.72
2023-04-12T22:46:58.924Z,5.40
2023-04-12T22:52:13.863Z,6.53
2023-04-12T22:57:09.681Z,7.40
2023-04-12T22:59:39.309Z,6.10
2023-04-12T23:02:06.633Z,6.32
2023-04-12T23:05:06.540Z,6.50
2023-04-12T23:07:38.606Z,6.70
2023-04-12T23:14:00.422Z,5.57
2023-04-12T23:16:29.022Z,5.47
2023-04-12T23:18:56.569Z,6.85
2023-04-12T23:21:25.149Z,5.22
2023-04-12T23:23:52.741Z,7.13
2023-04-12T23:26:20.299Z,5.53
2023-04-12T23:28:49.980Z,5.45
2023-04-12T23:31:17.394Z,6.20
2023-04-12T23:33:46.069Z,6.13
2023-04-12T23:38:40.764Z,6.10
2023-04-12T23:41:11.604Z,6.22
2023-04-12T23:43:38.715Z,5.55
2023-04-12T23:46:06.812Z,5.32
2023-04-12T23:48:33.943Z,5.18
2023-04-12T23:51:01.561Z,5.03
2023-04-12T23:53:29.221Z,5.78
2023-04-12T23:55:58.595Z,7.10
2023-04-12T23:58:26.245Z,6.13
